createdAt,value
2019-05-07T00:02:07.003Z,58.15
2019-05-07T00:04:38.663Z,57.83
2019-05-07T00:07:13.022Z,57.89
2019-05-07T00:09:45.156Z,58.50
2019-05-07T00:12:16.936Z,57.90
2019-05-07T00:14:58.996Z,58.30
2019-05-07T00:17:22.943Z,57.95
2019-05-07T00:19:54.756Z,57.92
2019-05-07T00:22:26.273Z,58.12
2019-05-07T00:24:57.928Z,57.75
2019-05-07T00:27:31.925Z,57.64
2019-05-07T00:30:03.776Z,57.96
2019-05-07T00:32:35.850Z,57.99
2019-05-07T00:35:09.188Z,57.51
2019-05-07T00:37:52.353Z,57.92
2019-05-07T00:40:45.701Z,57.15
2019-05-07T00:43:22.654Z,57.87
2019-05-07T00:45:57.350Z,57.40
2019-05-07T00:48:28.952Z,57.74
2019-05-07T00:51:22.479Z,58.09
2019-05-07T00:53:53.847Z,58.74
2019-05-07T00:56:25.534Z,58.26
2019-05-07T00:58:57.525Z,58.36
2019-05-07T01:01:29.393Z,58.78
2019-05-07T01:04:02.670Z,58.98
2019-05-07T01:06:34.660Z,58.80
2019-05-07T01:09:07.750Z,59.17
2019-05-07T01:11:39.784Z,58.80
2019-05-07T01:14:12.345Z,58.98
2019-05-07T01:16:44.398Z,58.55
2019-05-07T01:19:16.567Z,59.22
2019-05-07T01:21:49.533Z,59.40
2019-05-07T01:24:23.252Z,59.10
2019-05-07T01:26:54.753Z,59.97
2019-05-07T01:29:26.308Z,59.40
2019-05-07T01:32:04.331Z,59.04
2019-05-07T01:35:02.471Z,59.97
2019-05-07T01:37:34.506Z,59.74
2019-05-07T01:40:06.355Z,59.62
2019-05-07T01:42:38.111Z,60.24
2019-05-07T01:45:12.880Z,60.28
2019-05-07T01:47:44.178Z,60.29
2019-05-07T01:50:16.395Z,59.63
2019-05-07T01:52:49.279Z,59.76
2019-05-07T01:55:22.596Z,59.76
2019-05-07T01:57:56.119Z,60.13
2019-05-07T02:00:27.885Z,60.32
2019-05-07T02:03:06.348Z,60.61
2019-05-07T02:05:47.607Z,60.65
2019-05-07T02:08:39.162Z,59.94
2019-05-07T02:11:12.856Z,60.05
2019-05-07T02:13:46.371Z,60.87
2019-05-07T02:16:18.056Z,61.12
2019-05-07T02:18:52.672Z,60.84
2019-05-07T02:21:24.321Z,60.92
2019-05-07T02:23:58.429Z,60.83
2019-05-07T02:26:32.178Z,60.67
2019-05-07T02:29:03.731Z,60.41
2019-05-07T02:31:35.540Z,60.16
2019-05-07T02:34:07.419Z,60.72
2019-05-07T02:36:39.516Z,60.14
2019-05-07T02:39:17.548Z,60.78
2019-05-07T02:41:49.298Z,60.78
2019-05-07T02:44:23.239Z,60.42
2019-05-07T02:47:12.903Z,59.50
2019-05-07T02:49:53.502Z,59.67
2019-05-07T02:52:43.918Z,60.17
2019-05-07T02:55:23.168Z,60.02
2019-05-07T02:57:55.371Z,59.96
2019-05-07T03:00:27.781Z,59.83
2019-05-07T03:02:59.702Z,59.96
2019-05-07T03:05:34.749Z,59.75
2019-05-07T03:08:06.014Z,59.98
2019-05-07T03:10:38.025Z,60.28
2019-05-07T03:13:13.434Z,60.55
2019-05-07T03:15:44.091Z,60.34
2019-05-07T03:18:18.950Z,60.37
2019-05-07T03:20:59.286Z,60.77
2019-05-07T03:23:38.102Z,61.26
2019-05-07T03:26:26.875Z,60.53
2019-05-07T03:29:03.666Z,61.01
2019-05-07T03:31:56.111Z,60.42
2019-05-07T03:34:46.733Z,60.90
2019-05-07T03:37:23.224Z,60.88
2019-05-07T03:39:54.286Z,61.55
2019-05-07T03:42:26.179Z,61.49
2019-05-07T03:45:23.094Z,61.75
2019-05-07T03:48:04.281Z,61.66
2019-05-07T03:50:36.477Z,61.80
2019-05-07T03:53:08.384Z,62.21
2019-05-07T03:55:39.981Z,61.85
2019-05-07T03:58:14.541Z,61.94
2019-05-07T04:00:45.947Z,62.51
2019-05-07T04:03:19.778Z,62.47
2019-05-07T04:05:53.189Z,62.60
2019-05-07T04:08:24.497Z,62.70
2019-05-07T04:10:56.203Z,62.65
2019-05-07T04:13:28.100Z,62.38
2019-05-07T04:16:03.648Z,63.13
2019-05-07T04:18:34.121Z,62.68
2019-05-07T04:21:05.823Z,62.31
2019-05-07T04:23:37.543Z,61.97
2019-05-07T04:26:24.536Z,61.70
2019-05-07T04:29:04.867Z,61.90
2019-05-07T04:31:38.777Z,62.44
2019-05-07T04:34:18.662Z,62.18
2019-05-07T04:36:53.451Z,61.84
2019-05-07T04:39:24.424Z,62.41
2019-05-07T04:41:55.997Z,62.67
2019-05-07T04:44:28.764Z,62.70
2019-05-07T04:47:00.448Z,63.26
2019-05-07T04:49:33.383Z,62.94
2019-05-07T04:52:15.308Z,62.62
2019-05-07T04:54:47.359Z,62.66
2019-05-07T04:57:28.318Z,62.36
2019-05-07T05:00:03.395Z,62.52
2019-05-07T05:03:04.056Z,62.85
2019-05-07T05:05:35.684Z,62.09
2019-05-07T05:08:07.515Z,63.28
2019-05-07T05:10:39.179Z,62.06
2019-05-07T05:13:12.897Z,62.09
2019-05-07T05:15:44.953Z,62.50
2019-05-07T05:18:16.657Z,61.46
2019-05-07T05:21:02.881Z,62.13
2019-05-07T05:23:45.633Z,61.74
2019-05-07T05:26:17.275Z,62.35
2019-05-07T05:28:49.120Z,61.70
2019-05-07T05:31:22.299Z,62.14
2019-05-07T05:33:54.248Z,62.98
2019-05-07T05:36:25.969Z,62.29
2019-05-07T05:38:57.925Z,62.86
2019-05-07T05:41:31.258Z,62.41
2019-05-07T05:44:14.563Z,62.84
2019-05-07T05:46:46.401Z,63.11
2019-05-07T05:49:18.714Z,64.08
2019-05-07T05:52:12.543Z,64.34
2019-05-07T05:54:54.816Z,63.96
2019-05-07T05:57:36.899Z,64.69
2019-05-07T06:00:27.864Z,63.58
2019-05-07T06:03:27.651Z,64.39
2019-05-07T06:06:06.685Z,63.29
2019-05-07T06:08:44.626Z,63.49
2019-05-07T06:11:35.534Z,61.27
2019-05-07T06:14:15.298Z,60.26
2019-05-07T06:16:57.238Z,60.43
2019-05-07T06:19:37.457Z,60.41
2019-05-07T06:22:27.450Z,59.49
2019-05-07T06:25:06.535Z,60.37
2019-05-07T06:27:38.552Z,61.80
2019-05-07T06:30:12.086Z,61.37
2019-05-07T06:32:43.997Z,61.98
2019-05-07T06:35:15.907Z,61.47
2019-05-07T06:37:48.169Z,62.02
2019-05-07T06:40:51.904Z,59.92
2019-05-07T06:43:42.051Z,60.35
2019-05-07T06:46:13.738Z,59.92
2019-05-07T06:48:46.431Z,59.55
2019-05-07T06:51:18.250Z,60.38
2019-05-07T06:53:51.873Z,60.30
2019-05-07T06:56:23.600Z,60.50
2019-05-07T06:59:02.241Z,59.72
2019-05-07T07:01:52.962Z,61.27
2019-05-07T07:04:33.201Z,60.36
2019-05-07T07:07:23.974Z,60.71
2019-05-07T07:09:51.959Z,59.35
2019-05-07T07:12:26.306Z,61.08
2019-05-07T07:14:58.302Z,57.65
2019-05-07T07:17:30.003Z,58.77
2019-05-07T07:20:02.286Z,59.87
2019-05-07T07:22:34.305Z,59.79
2019-05-07T07:25:06.765Z,57.85
2019-05-07T07:27:38.575Z,58.07
2019-05-07T07:30:28.308Z,58.72
2019-05-07T07:33:02.901Z,58.51
2019-05-07T07:35:34.807Z,59.04
2019-05-07T07:38:25.561Z,56.27
2019-05-07T07:41:03.006Z,59.05
2019-05-07T07:43:35.433Z,56.96
2019-05-07T07:46:07.585Z,57.55
2019-05-07T07:48:39.493Z,57.29
2019-05-07T07:51:13.513Z,55.89
2019-05-07T07:53:44.803Z,57.68
2019-05-07T07:56:50.114Z,55.99
2019-05-07T07:59:33.084Z,54.26
2019-05-07T08:02:12.896Z,53.65
2019-05-07T08:04:44.619Z,54.93
2019-05-07T08:07:16.308Z,55.33
2019-05-07T08:09:48.055Z,55.78
2019-05-07T08:12:21.509Z,56.33
2019-05-07T08:14:53.329Z,55.46
2019-05-07T08:17:25.016Z,56.40
2019-05-07T08:19:56.810Z,56.58
2019-05-07T08:22:28.784Z,56.75
2019-05-07T08:25:01.931Z,55.62
2019-05-07T08:27:33.819Z,56.10
2019-05-07T08:30:07.047Z,55.80
2019-05-07T08:32:56.683Z,56.04
2019-05-07T08:35:47.669Z,55.28
2019-05-07T08:38:21.810Z,54.79
2019-05-07T08:40:52.992Z,54.58
2019-05-07T08:43:25.026Z,54.00
2019-05-07T08:46:22.337Z,55.55
2019-05-07T08:48:55.203Z,54.87
2019-05-07T08:51:26.942Z,54.21
2019-05-07T08:54:07.586Z,54.20
2019-05-07T08:56:39.738Z,55.25
2019-05-07T08:59:12.391Z,54.61
2019-05-07T09:01:44.343Z,55.04
2019-05-07T09:04:15.892Z,54.67
2019-05-07T09:06:49.041Z,54.80
2019-05-07T09:09:22.184Z,55.69
2019-05-07T09:11:54.080Z,53.61
2019-05-07T09:14:26.327Z,51.89
2019-05-07T09:16:58.106Z,52.15
2019-05-07T09:19:32.214Z,53.50
2019-05-07T09:22:06.284Z,53.48
2019-05-07T09:24:38.169Z,53.46
2019-05-07T09:27:30.057Z,51.85
2019-05-07T09:30:19.448Z,51.11
2019-05-07T09:33:14.766Z,52.34
2019-05-07T09:35:52.839Z,51.45
2019-05-07T09:38:24.989Z,51.50
2019-05-07T09:40:57.210Z,51.95
2019-05-07T09:43:28.835Z,51.90
2019-05-07T09:46:02.708Z,51.53
2019-05-07T09:48:34.336Z,50.80
2019-05-07T09:51:06.102Z,51.10
2019-05-07T09:53:37.960Z,51.37
2019-05-07T09:56:12.254Z,50.57
2019-05-07T09:58:43.699Z,48.55
2019-05-07T10:01:18.175Z,49.94
2019-05-07T10:03:51.851Z,49.40
2019-05-07T10:06:23.693Z,50.98
2019-05-07T10:08:55.420Z,48.87
2019-05-07T10:11:33.717Z,50.36
2019-05-07T10:14:09.246Z,50.29
2019-05-07T10:16:47.783Z,51.03
2019-05-07T10:19:22.104Z,51.59
2019-05-07T10:21:53.588Z,49.72
2019-05-07T10:24:25.484Z,47.70
2019-05-07T10:26:57.118Z,47.83
2019-05-07T10:29:29.255Z,48.99
2019-05-07T10:32:02.214Z,49.42
2019-05-07T10:34:34.166Z,49.19
2019-05-07T10:37:06.289Z,47.62
2019-05-07T10:39:39.005Z,49.50
2019-05-07T10:42:13.218Z,47.59
2019-05-07T10:44:52.544Z,45.87
2019-05-07T10:47:49.060Z,45.09
2019-05-07T10:50:35.343Z,46.81
2019-05-07T10:52:59.138Z,44.83
2019-05-07T10:55:32.702Z,45.83
2019-05-07T10:58:04.289Z,46.92
2019-05-07T11:00:36.908Z,44.92
2019-05-07T11:03:08.714Z,44.71
2019-05-07T11:05:41.864Z,46.08
2019-05-07T11:08:13.676Z,48.13
2019-05-07T11:10:46.596Z,46.47
2019-05-07T11:13:18.417Z,47.83
2019-05-07T11:15:52.969Z,45.90
2019-05-07T11:18:43.637Z,46.67
2019-05-07T11:21:17.701Z,46.63
2019-05-07T11:23:52.101Z,46.72
2019-05-07T11:26:23.446Z,46.23
2019-05-07T11:28:55.412Z,46.25
2019-05-07T11:31:27.536Z,48.40
2019-05-07T11:33:59.823Z,46.54
2019-05-07T11:36:34.367Z,47.53
2019-05-07T11:39:07.709Z,47.29
2019-05-07T11:41:57.075Z,47.42
2019-05-07T11:44:32.094Z,47.13
2019-05-07T11:47:28.692Z,43.05
2019-05-07T11:50:32.977Z,43.95
2019-05-07T11:53:07.150Z,43.90
2019-05-07T11:55:38.883Z,44.92
2019-05-07T11:58:12.855Z,45.55
2019-05-07T12:01:04.817Z,44.60
2019-05-07T12:03:36.907Z,45.53
2019-05-07T12:06:08.733Z,46.06
2019-05-07T12:08:48.078Z,44.90
2019-05-07T12:11:15.046Z,45.10
2019-05-07T12:13:46.568Z,45.89
2019-05-07T12:16:19.527Z,45.70
2019-05-07T12:18:52.450Z,44.75
2019-05-07T12:21:25.058Z,45.70
2019-05-07T12:23:56.687Z,44.85
2019-05-07T12:26:28.788Z,45.53
2019-05-07T12:29:00.574Z,46.24
2019-05-07T12:31:47.234Z,46.62
2019-05-07T12:34:23.348Z,46.62
2019-05-07T12:36:55.233Z,46.88
2019-05-07T12:39:27.099Z,46.58
2019-05-07T12:41:59.007Z,47.38
2019-05-07T12:44:33.725Z,47.24
2019-05-07T12:47:06.295Z,45.93
2019-05-07T12:49:37.829Z,45.18
2019-05-07T12:52:22.646Z,45.20
2019-05-07T12:55:12.887Z,45.15
2019-05-07T12:57:44.773Z,45.64
2019-05-07T13:00:34.943Z,45.41
2019-05-07T13:03:21.816Z,42.06
2019-05-07T13:05:54.586Z,43.64
2019-05-07T13:08:26.363Z,42.66
2019-05-07T13:10:57.973Z,43.56
2019-05-07T13:13:31.835Z,44.33
2019-05-07T13:16:04.043Z,45.61
2019-05-07T13:18:35.734Z,45.29
2019-05-07T13:21:07.349Z,45.59
2019-05-07T13:23:39.033Z,45.90
2019-05-07T13:26:10.533Z,46.76
2019-05-07T13:28:44.348Z,48.02
2019-05-07T13:31:17.662Z,44.78
2019-05-07T13:33:52.411Z,46.05
2019-05-07T13:36:25.403Z,45.51
2019-05-07T13:39:23.347Z,45.41
2019-05-07T13:42:04.703Z,45.26
2019-05-07T13:44:52.584Z,46.11
2019-05-07T13:47:29.893Z,46.34
2019-05-07T13:50:02.769Z,46.67
2019-05-07T13:52:35.191Z,47.68
2019-05-07T13:55:08.331Z,46.11
2019-05-07T13:57:41.961Z,47.62
2019-05-07T14:00:21.901Z,47.82
2019-05-07T14:02:55.528Z,47.67
2019-05-07T14:05:29.406Z,46.57
2019-05-07T14:08:04.337Z,47.20
2019-05-07T14:10:35.135Z,46.86
2019-05-07T14:13:12.757Z,46.91
2019-05-07T14:15:42.982Z,47.35
2019-05-07T14:18:14.750Z,46.90
2019-05-07T14:20:46.302Z,47.03
2019-05-07T14:23:17.862Z,48.03
2019-05-07T14:25:49.638Z,47.92
2019-05-07T14:28:23.563Z,46.87
2019-05-07T14:30:56.298Z,45.21
2019-05-07T14:33:53.924Z,46.68
2019-05-07T14:36:32.074Z,45.29
2019-05-07T14:39:06.613Z,45.67
2019-05-07T14:41:38.629Z,44.84
2019-05-07T14:44:13.445Z,45.34
2019-05-07T14:46:51.526Z,45.14
2019-05-07T14:59:13.873Z,45.71
2019-05-07T15:01:45.869Z,44.40
2019-05-07T15:04:18.401Z,45.22
2019-05-07T15:06:51.948Z,44.57
2019-05-07T15:09:24.277Z,45.03
2019-05-07T15:11:56.535Z,44.52
2019-05-07T15:14:28.247Z,44.95
2019-05-07T15:17:07.147Z,44.38
2019-05-07T15:19:38.787Z,43.81
2019-05-07T15:22:45.416Z,43.47
2019-05-07T15:25:07.094Z,42.93
2019-05-07T15:27:39.003Z,43.31
2019-05-07T15:30:11.805Z,43.81
2019-05-07T15:32:43.739Z,43.16
2019-05-07T15:35:17.076Z,44.12
2019-05-07T15:37:49.336Z,43.47
2019-05-07T15:40:22.543Z,44.29
2019-05-07T15:42:54.675Z,44.83
2019-05-07T15:45:26.491Z,46.01
2019-05-07T15:47:58.771Z,46.19
2019-05-07T15:50:32.202Z,46.79
2019-05-07T15:53:25.458Z,47.15
2019-05-07T15:55:57.324Z,47.95
2019-05-07T15:58:29.057Z,47.91
2019-05-07T16:01:02.200Z,47.45
2019-05-07T16:03:37.810Z,48.38
2019-05-07T16:06:09.401Z,47.85
2019-05-07T16:08:49.089Z,45.76
2019-05-07T16:11:19.972Z,46.71
2019-05-07T16:14:09.206Z,47.06
2019-05-07T16:16:44.306Z,47.35
2019-05-07T16:19:27.063Z,47.29
2019-05-07T16:22:03.805Z,48.07
2019-05-07T16:24:36.063Z,46.26
2019-05-07T16:27:08.215Z,47.53
2019-05-07T16:29:41.930Z,47.57
2019-05-07T16:32:13.790Z,48.39
2019-05-07T16:34:45.779Z,47.05
2019-05-07T16:37:17.626Z,47.33
2019-05-07T16:39:49.708Z,47.17
2019-05-07T16:42:22.161Z,46.05
2019-05-07T16:44:53.919Z,46.39
2019-05-07T16:47:26.043Z,45.47
2019-05-07T16:49:57.724Z,45.11
2019-05-07T16:52:29.594Z,45.88
2019-05-07T16:55:02.971Z,46.04
2019-05-07T16:57:54.402Z,46.54
2019-05-07T17:00:39.421Z,46.41
2019-05-07T17:03:16.602Z,47.26
2019-05-07T17:05:48.447Z,46.82
2019-05-07T17:08:39.926Z,47.06
2019-05-07T17:11:12.124Z,46.70
2019-05-07T17:13:43.878Z,47.04
2019-05-07T17:16:15.762Z,46.80
2019-05-07T17:18:47.676Z,45.50
2019-05-07T17:21:21.620Z,45.58
2019-05-07T17:23:52.935Z,46.16
2019-05-07T17:26:24.532Z,45.79
2019-05-07T17:28:56.361Z,45.46
2019-05-07T17:31:28.808Z,45.74
2019-05-07T17:34:02.286Z,46.24
2019-05-07T17:36:34.511Z,46.81
2019-05-07T17:39:09.311Z,46.52
2019-05-07T17:41:42.885Z,46.01
2019-05-07T17:44:15.195Z,45.98
2019-05-07T17:46:46.873Z,46.47
2019-05-07T17:49:18.873Z,46.60
2019-05-07T17:51:52.586Z,46.92
2019-05-07T17:54:24.572Z,47.88
2019-05-07T17:56:56.180Z,49.06
2019-05-07T17:59:29.214Z,49.79
2019-05-07T18:02:29.665Z,50.06
2019-05-07T18:05:02.950Z,50.60
2019-05-07T18:07:36.918Z,50.63
2019-05-07T18:10:09.820Z,51.15
2019-05-07T18:12:42.559Z,51.40
2019-05-07T18:15:14.477Z,51.83
2019-05-07T18:18:03.010Z,52.27
2019-05-07T18:20:35.577Z,52.38
2019-05-07T18:23:10.256Z,52.37
2019-05-07T18:25:42.693Z,52.67
2019-05-07T18:28:16.238Z,52.97
2019-05-07T18:30:49.122Z,53.46
2019-05-07T18:33:29.098Z,53.55
2019-05-07T18:36:02.677Z,54.03
2019-05-07T18:38:34.560Z,54.30
2019-05-07T18:41:06.565Z,54.71
2019-05-07T18:43:38.279Z,55.20
2019-05-07T18:46:10.083Z,55.82
2019-05-07T18:48:42.633Z,56.23
2019-05-07T18:51:14.570Z,56.60
2019-05-07T18:53:46.544Z,57.05
2019-05-07T18:56:19.222Z,57.43
2019-05-07T18:58:52.091Z,57.75
2019-05-07T19:01:25.912Z,57.71
2019-05-07T19:03:58.279Z,57.71
2019-05-07T19:06:31.793Z,58.20
2019-05-07T19:09:05.616Z,58.61
2019-05-07T19:11:39.376Z,58.91
2019-05-07T19:14:13.212Z,58.96
2019-05-07T19:16:44.568Z,59.06
2019-05-07T19:19:17.595Z,58.82
2019-05-07T19:21:49.665Z,58.69
2019-05-07T19:24:25.666Z,58.47
2019-05-07T19:26:55.588Z,58.62
2019-05-07T19:29:27.701Z,58.87
2019-05-07T19:31:59.527Z,59.21
2019-05-07T19:34:32.492Z,59.40
2019-05-07T19:37:05.115Z,59.24
2019-05-07T19:39:36.915Z,59.52
2019-05-07T19:42:08.969Z,59.69
2019-05-07T19:44:43.172Z,59.92
2019-05-07T19:47:15.096Z,60.13
2019-05-07T19:49:47.182Z,60.36
2019-05-07T19:52:19.326Z,60.39
2019-05-07T19:55:01.232Z,59.58
2019-05-07T19:57:29.556Z,59.49
2019-05-07T20:00:01.290Z,59.24
2019-05-07T20:02:39.651Z,59.44
2019-05-07T20:05:12.109Z,60.03
2019-05-07T20:07:44.348Z,60.11
2019-05-07T20:10:20.490Z,60.75
2019-05-07T20:12:52.447Z,61.18
2019-05-07T20:15:24.251Z,61.41
2019-05-07T20:17:56.360Z,62.30
2019-05-07T20:20:27.956Z,62.48
2019-05-07T20:22:59.839Z,62.85
2019-05-07T20:25:33.232Z,63.58
2019-05-07T20:28:05.603Z,64.09
2019-05-07T20:30:37.472Z,65.02
2019-05-07T20:33:09.532Z,64.94
2019-05-07T20:35:43.765Z,65.22
2019-05-07T20:38:16.596Z,65.55
2019-05-07T20:40:48.658Z,65.12
2019-05-07T20:43:23.088Z,65.04
2019-05-07T20:45:54.997Z,64.70
2019-05-07T20:48:26.768Z,64.63
2019-05-07T20:50:59.334Z,64.64
2019-05-07T20:54:02.310Z,64.73
2019-05-07T20:56:35.730Z,64.86
2019-05-07T20:59:08.313Z,65.00
2019-05-07T21:01:42.001Z,64.88
2019-05-07T21:04:13.488Z,64.89
2019-05-07T21:06:45.459Z,64.93
2019-05-07T21:09:18.267Z,65.30
2019-05-07T21:11:50.174Z,65.18
2019-05-07T21:14:22.818Z,65.38
2019-05-07T21:16:54.896Z,65.85
2019-05-07T21:19:26.536Z,65.81
2019-05-07T21:21:58.589Z,65.83
2019-05-07T21:24:30.365Z,65.90
2019-05-07T21:27:03.837Z,65.75
2019-05-07T21:29:35.768Z,65.73
2019-05-07T21:32:07.726Z,65.84
2019-05-07T21:34:39.414Z,65.89
2019-05-07T21:37:12.588Z,65.81
2019-05-07T21:39:44.511Z,66.06
2019-05-07T21:42:16.019Z,66.04
2019-05-07T21:44:49.271Z,66.38
2019-05-07T21:47:22.178Z,66.45
2019-05-07T21:49:55.267Z,66.64
2019-05-07T21:52:29.828Z,66.99
2019-05-07T21:55:12.779Z,67.06
2019-05-07T21:58:02.411Z,67.12
2019-05-07T22:00:46.284Z,67.16
2019-05-07T22:03:19.581Z,67.05
2019-05-07T22:05:52.005Z,67.07
2019-05-07T22:08:23.794Z,67.04
2019-05-07T22:10:55.855Z,67.02
2019-05-07T22:13:28.968Z,67.04
2019-05-07T22:16:02.544Z,67.32
2019-05-07T22:18:34.102Z,67.41
2019-05-07T22:21:05.779Z,67.76
2019-05-07T22:23:37.399Z,67.71
2019-05-07T22:26:20.018Z,67.59
2019-05-07T22:28:45.856Z,67.46
2019-05-07T22:31:36.798Z,67.78
2019-05-07T22:34:15.490Z,67.81
2019-05-07T22:36:48.362Z,67.76
2019-05-07T22:39:32.758Z,69.16
2019-05-07T22:42:06.157Z,68.54
2019-05-07T22:44:37.863Z,67.10
2019-05-07T22:47:22.898Z,67.35
2019-05-07T22:49:56.728Z,67.71
2019-05-07T22:52:28.729Z,67.72
2019-05-07T22:55:00.482Z,67.19
2019-05-07T22:57:52.618Z,67.09
2019-05-07T23:00:47.631Z,67.32
2019-05-07T23:03:20.132Z,67.90
2019-05-07T23:05:53.579Z,68.28
2019-05-07T23:08:25.286Z,68.25
2019-05-07T23:10:56.946Z,68.44
2019-05-07T23:13:28.954Z,68.95
2019-05-07T23:16:02.647Z,68.92
2019-05-07T23:18:35.075Z,69.19
2019-05-07T23:21:07.073Z,69.40
2019-05-07T23:23:38.781Z,69.79
2019-05-07T23:26:12.189Z,70.11
2019-05-07T23:28:44.072Z,70.22
2019-05-07T23:31:15.830Z,70.90
2019-05-07T23:33:47.962Z,71.74
2019-05-07T23:36:21.815Z,72.56
2019-05-07T23:38:53.013Z,71.63
2019-05-07T23:41:37.173Z,72.06
2019-05-07T23:44:28.005Z,72.34
2019-05-07T23:46:59.754Z,73.17
2019-05-07T23:49:32.229Z,72.82
2019-05-07T23:52:04.144Z,72.78
2019-05-07T23:54:36.280Z,72.53
2019-05-07T23:57:09.821Z,72.28
2019-05-07T23:59:42.168Z,72.11
